sensor_id;sensor_type;location;lat;lon;timestamp;pressure;altitude;pressure_sealevel;temperature;humidity
41040;BME280;48586;50.122;18.972;2023-09-30T00:03:16;98935.44;;;11.34;60.01
41040;BME280;48586;50.122;18.972;2023-09-30T00:06:21;98928.53;;;11.32;60.86
41040;BME280;48586;50.122;18.972;2023-09-30T00:09:27;98932.19;;;11.31;61.36
41040;BME280;48586;50.122;18.972;2023-09-30T00:12:32;98928.53;;;11.32;61.50
41040;BME280;48586;50.122;18.972;2023-09-30T00:15:38;98922.03;;;11.34;61.15
41040;BME280;48586;50.122;18.972;2023-09-30T00:18:47;98927.53;;;11.33;60.71
41040;BME280;48586;50.122;18.972;2023-09-30T00:21:54;98921.47;;;11.31;59.82
41040;BME280;48586;50.122;18.972;2023-09-30T00:25:00;98929.66;;;11.29;59.71
41040;BME280;48586;50.122;18.972;2023-09-30T00:28:06;98928.25;;;11.25;60.01
41040;BME280;48586;50.122;18.972;2023-09-30T00:31:11;98922.47;;;11.20;59.85
41040;BME280;48586;50.122;18.972;2023-09-30T00:34:21;98921.19;;;11.14;59.78
41040;BME280;48586;50.122;18.972;2023-09-30T00:37:26;98915.00;;;11.14;59.87
41040;BME280;48586;50.122;18.972;2023-09-30T00:40:33;98907.25;;;11.11;59.69
41040;BME280;48586;50.122;18.972;2023-09-30T00:43:39;98908.25;;;11.10;59.79
41040;BME280;48586;50.122;18.972;2023-09-30T00:46:49;98907.94;;;11.13;60.03
41040;BME280;48586;50.122;18.972;2023-09-30T00:49:57;98903.44;;;11.13;60.16
41040;BME280;48586;50.122;18.972;2023-09-30T00:53:05;98900.59;;;11.15;60.38
41040;BME280;48586;50.122;18.972;2023-09-30T00:56:11;98891.31;;;11.09;60.08
41040;BME280;48586;50.122;18.972;2023-09-30T00:59:20;98899.34;;;11.19;60.61
41040;BME280;48586;50.122;18.972;2023-09-30T01:02:27;98903.88;;;11.18;60.72
41040;BME280;48586;50.122;18.972;2023-09-30T01:05:36;98901.03;;;11.20;60.07
41040;BME280;48586;50.122;18.972;2023-09-30T01:08:43;98909.91;;;11.20;59.96
41040;BME280;48586;50.122;18.972;2023-09-30T01:11:49;98902.19;;;11.17;59.97
41040;BME280;48586;50.122;18.972;2023-09-30T01:14:57;98902.59;;;11.13;59.87
41040;BME280;48586;50.122;18.972;2023-09-30T01:18:04;98909.78;;;11.12;60.09
41040;BME280;48586;50.122;18.972;2023-09-30T01:21:12;98901.44;;;11.15;59.81
41040;BME280;48586;50.122;18.972;2023-09-30T01:24:21;98901.19;;;11.18;59.91
41040;BME280;48586;50.122;18.972;2023-09-30T01:27:26;98904.84;;;11.17;59.95
41040;BME280;48586;50.122;18.972;2023-09-30T01:30:33;98907.81;;;11.14;60.48
41040;BME280;48586;50.122;18.972;2023-09-30T01:33:39;98910.63;;;11.13;61.07
41040;BME280;48586;50.122;18.972;2023-09-30T01:36:46;98906.97;;;11.14;61.07
41040;BME280;48586;50.122;18.972;2023-09-30T01:39:55;98908.53;;;11.16;61.69
41040;BME280;48586;50.122;18.972;2023-09-30T01:43:03;98906.09;;;11.23;61.43
41040;BME280;48586;50.122;18.972;2023-09-30T01:46:09;98906.78;;;11.25;60.93
41040;BME280;48586;50.122;18.972;2023-09-30T01:49:16;98905.81;;;11.26;60.87
41040;BME280;48586;50.122;18.972;2023-09-30T01:52:21;98910.75;;;11.31;60.91
41040;BME280;48586;50.122;18.972;2023-09-30T01:55:29;98904.69;;;11.29;60.96
41040;BME280;48586;50.122;18.972;2023-09-30T01:58:34;98903.56;;;11.31;61.17
41040;BME280;48586;50.122;18.972;2023-09-30T02:01:41;98906.63;;;11.36;60.36
41040;BME280;48586;50.122;18.972;2023-09-30T02:04:47;98900.28;;;11.37;59.98
41040;BME280;48586;50.122;18.972;2023-09-30T02:07:54;98895.78;;;11.38;60.55
41040;BME280;48586;50.122;18.972;2023-09-30T02:11:02;98885.16;;;11.46;60.11
41040;BME280;48586;50.122;18.972;2023-09-30T02:14:10;98888.66;;;11.56;58.99
41040;BME280;48586;50.122;18.972;2023-09-30T02:17:15;98895.56;;;11.59;58.42
41040;BME280;48586;50.122;18.972;2023-09-30T02:20:22;98892.88;;;11.59;58.88
41040;BME280;48586;50.122;18.972;2023-09-30T02:23:32;98895.28;;;11.62;58.64
41040;BME280;48586;50.122;18.972;2023-09-30T02:26:40;98888.63;;;11.66;58.34
41040;BME280;48586;50.122;18.972;2023-09-30T02:29:46;98889.47;;;11.66;57.74
41040;BME280;48586;50.122;18.972;2023-09-30T02:32:53;98882.03;;;11.70;57.70
41040;BME280;48586;50.122;18.972;2023-09-30T02:35:57;98892.81;;;11.88;57.42
41040;BME280;48586;50.122;18.972;2023-09-30T02:39:03;98882.34;;;11.94;57.29
41040;BME280;48586;50.122;18.972;2023-09-30T02:42:12;98888.19;;;12.08;56.73
41040;BME280;48586;50.122;18.972;2023-09-30T02:45:19;98879.78;;;12.20;56.37
41040;BME280;48586;50.122;18.972;2023-09-30T02:48:24;98881.03;;;12.26;55.79
41040;BME280;48586;50.122;18.972;2023-09-30T02:51:31;98875.19;;;12.30;55.62
41040;BME280;48586;50.122;18.972;2023-09-30T02:54:37;98882.66;;;12.37;55.31
41040;BME280;48586;50.122;18.972;2023-09-30T02:57:47;98888.41;;;12.42;55.53
41040;BME280;48586;50.122;18.972;2023-09-30T03:00:51;98893.63;;;12.43;55.75
41040;BME280;48586;50.122;18.972;2023-09-30T03:03:57;98896.19;;;12.45;55.65
41040;BME280;48586;50.122;18.972;2023-09-30T03:07:01;98894.03;;;12.48;55.42
41040;BME280;48586;50.122;18.972;2023-09-30T03:10:07;98894.41;;;12.53;55.15
41040;BME280;48586;50.122;18.972;2023-09-30T03:13:16;98886.97;;;12.65;54.91
41040;BME280;48586;50.122;18.972;2023-09-30T03:16:23;98886.66;;;12.68;54.56
41040;BME280;48586;50.122;18.972;2023-09-30T03:19:28;98888.38;;;12.69;54.58
41040;BME280;48586;50.122;18.972;2023-09-30T03:22:33;98893.75;;;12.69;54.35
41040;BME280;48586;50.122;18.972;2023-09-30T03:25:38;98890.19;;;12.69;54.98
41040;BME280;48586;50.122;18.972;2023-09-30T03:28:46;98884.97;;;12.67;55.18
41040;BME280;48586;50.122;18.972;2023-09-30T03:31:51;98887.84;;;12.66;55.83
41040;BME280;48586;50.122;18.972;2023-09-30T03:34:56;98888.78;;;12.64;55.94
41040;BME280;48586;50.122;18.972;2023-09-30T03:38:02;98895.31;;;12.62;56.40
41040;BME280;48586;50.122;18.972;2023-09-30T03:41:09;98900.53;;;12.63;56.39
41040;BME280;48586;50.122;18.972;2023-09-30T03:44:18;98900.84;;;12.60;56.50
41040;BME280;48586;50.122;18.972;2023-09-30T03:47:24;98899.34;;;12.58;57.20
41040;BME280;48586;50.122;18.972;2023-09-30T03:50:29;98896.66;;;12.58;57.19
41040;BME280;48586;50.122;18.972;2023-09-30T03:53:35;98900.34;;;12.57;56.71
41040;BME280;48586;50.122;18.972;2023-09-30T03:56:39;98905.84;;;12.55;56.76
41040;BME280;48586;50.122;18.972;2023-09-30T03:59:48;98901.94;;;12.50;56.67
41040;BME280;48586;50.122;18.972;2023-09-30T04:02:53;98910.44;;;12.45;57.29
41040;BME280;48586;50.122;18.972;2023-09-30T04:06:01;98905.34;;;12.42;58.95
41040;BME280;48586;50.122;18.972;2023-09-30T04:09:06;98908.88;;;12.43;58.92
41040;BME280;48586;50.122;18.972;2023-09-30T04:12:14;98909.72;;;12.43;58.75
41040;BME280;48586;50.122;18.972;2023-09-30T04:15:21;98908.03;;;12.42;58.25
41040;BME280;48586;50.122;18.972;2023-09-30T04:18:27;98916.25;;;12.41;58.26
41040;BME280;48586;50.122;18.972;2023-09-30T04:21:31;98912.03;;;12.38;57.97
41040;BME280;48586;50.122;18.972;2023-09-30T04:24:36;98921.09;;;12.37;58.53
41040;BME280;48586;50.122;18.972;2023-09-30T04:27:41;98917.94;;;12.42;58.24
41040;BME280;48586;50.122;18.972;2023-09-30T04:30:50;98912.97;;;12.47;58.22
41040;BME280;48586;50.122;18.972;2023-09-30T04:33:55;98925.78;;;12.53;58.11
41040;BME280;48586;50.122;18.972;2023-09-30T04:37:00;98922.34;;;12.60;57.71
41040;BME280;48586;50.122;18.972;2023-09-30T04:40:06;98923.72;;;12.64;57.79
41040;BME280;48586;50.122;18.972;2023-09-30T04:43:17;98936.88;;;12.68;57.63
41040;BME280;48586;50.122;18.972;2023-09-30T04:46:24;98934.19;;;12.68;57.74
41040;BME280;48586;50.122;18.972;2023-09-30T04:49:30;98927.81;;;12.69;57.39
41040;BME280;48586;50.122;18.972;2023-09-30T04:52:34;98920.06;;;12.66;56.80
41040;BME280;48586;50.122;18.972;2023-09-30T04:55:40;98934.75;;;12.71;57.30
41040;BME280;48586;50.122;18.972;2023-09-30T04:58:45;98934.84;;;12.79;57.22
41040;BME280;48586;50.122;18.972;2023-09-30T05:01:54;98937.63;;;12.87;56.99
41040;BME280;48586;50.122;18.972;2023-09-30T05:04:58;98930.06;;;12.91;57.34
41040;BME280;48586;50.122;18.972;2023-09-30T05:08:05;98939.34;;;12.97;56.79
41040;BME280;48586;50.122;18.972;2023-09-30T05:11:11;98949.50;;;13.03;56.69
41040;BME280;48586;50.122;18.972;2023-09-30T05:14:18;98944.34;;;13.09;56.64
41040;BME280;48586;50.122;18.972;2023-09-30T05:17:26;98958.84;;;13.16;56.56
41040;BME280;48586;50.122;18.972;2023-09-30T05:20:33;98956.41;;;13.23;56.69
41040;BME280;48586;50.122;18.972;2023-09-30T05:23:40;98955.72;;;13.21;56.56
41040;BME280;48586;50.122;18.972;2023-09-30T05:26:46;98969.69;;;13.25;56.80
41040;BME280;48586;50.122;18.972;2023-09-30T05:29:52;98969.00;;;13.23;56.69
41040;BME280;48586;50.122;18.972;2023-09-30T05:33:00;98976.06;;;13.24;56.79
41040;BME280;48586;50.122;18.972;2023-09-30T05:36:05;98959.41;;;13.20;56.57
41040;BME280;48586;50.122;18.972;2023-09-30T05:39:11;98976.66;;;13.35;56.27
41040;BME280;48586;50.122;18.972;2023-09-30T05:42:20;98985.81;;;13.42;56.22
41040;BME280;48586;50.122;18.972;2023-09-30T05:45:26;98987.19;;;13.46;56.20
41040;BME280;48586;50.122;18.972;2023-09-30T05:48:34;98995.09;;;13.48;56.29
41040;BME280;48586;50.122;18.972;2023-09-30T05:51:41;99004.84;;;13.49;56.46
41040;BME280;48586;50.122;18.972;2023-09-30T05:54:47;98994.94;;;13.49;56.05
41040;BME280;48586;50.122;18.972;2023-09-30T05:57:52;99004.72;;;13.50;56.31
41040;BME280;48586;50.122;18.972;2023-09-30T06:00:59;99007.25;;;13.52;56.51
41040;BME280;48586;50.122;18.972;2023-09-30T06:04:10;99024.06;;;13.54;56.50
41040;BME280;48586;50.122;18.972;2023-09-30T06:07:17;99015.22;;;13.62;56.82
41040;BME280;48586;50.122;18.972;2023-09-30T06:10:22;99013.84;;;13.75;56.56
41040;BME280;48586;50.122;18.972;2023-09-30T06:13:27;99015.28;;;13.88;56.23
41040;BME280;48586;50.122;18.972;2023-09-30T06:16:35;99019.06;;;14.03;55.76
41040;BME280;48586;50.122;18.972;2023-09-30T06:19:43;99015.06;;;14.07;55.42
41040;BME280;48586;50.122;18.972;2023-09-30T06:22:49;99024.72;;;14.18;55.02
41040;BME280;48586;50.122;18.972;2023-09-30T06:25:55;99028.31;;;14.26;54.91
41040;BME280;48586;50.122;18.972;2023-09-30T06:29:02;99029.88;;;14.37;55.17
41040;BME280;48586;50.122;18.972;2023-09-30T06:32:08;99034.44;;;14.45;54.71
41040;BME280;48586;50.122;18.972;2023-09-30T06:35:17;99035.50;;;14.52;54.18
41040;BME280;48586;50.122;18.972;2023-09-30T06:38:21;99046.81;;;14.55;53.59
41040;BME280;48586;50.122;18.972;2023-09-30T06:41:29;99054.03;;;14.55;54.09
41040;BME280;48586;50.122;18.972;2023-09-30T06:44:35;99051.31;;;14.47;53.85
41040;BME280;48586;50.122;18.972;2023-09-30T06:47:42;99048.06;;;14.43;54.21
41040;BME280;48586;50.122;18.972;2023-09-30T06:50:51;99057.31;;;14.41;53.77
41040;BME280;48586;50.122;18.972;2023-09-30T06:53:58;99056.09;;;14.35;53.50
41040;BME280;48586;50.122;18.972;2023-09-30T06:57:07;99062.81;;;14.31;54.19
41040;BME280;48586;50.122;18.972;2023-09-30T07:00:16;99063.50;;;14.33;54.23
41040;BME280;48586;50.122;18.972;2023-09-30T07:03:21;99066.88;;;14.35;54.43
41040;BME280;48586;50.122;18.972;2023-09-30T07:06:30;99073.97;;;14.36;54.70
41040;BME280;48586;50.122;18.972;2023-09-30T07:09:35;99079.88;;;14.40;54.46
41040;BME280;48586;50.122;18.972;2023-09-30T07:12:41;99081.41;;;14.42;54.72
41040;BME280;48586;50.122;18.972;2023-09-30T07:15:48;99080.41;;;14.43;54.49
41040;BME280;48586;50.122;18.972;2023-09-30T07:18:54;99080.69;;;14.32;54.70
41040;BME280;48586;50.122;18.972;2023-09-30T07:22:01;99088.41;;;14.27;55.15
41040;BME280;48586;50.122;18.972;2023-09-30T07:25:08;99083.47;;;14.22;55.31
41040;BME280;48586;50.122;18.972;2023-09-30T07:28:16;99086.66;;;14.18;55.28
41040;BME280;48586;50.122;18.972;2023-09-30T07:31:23;99091.53;;;14.14;55.59
41040;BME280;48586;50.122;18.972;2023-09-30T07:34:29;99090.53;;;14.15;56.27
41040;BME280;48586;50.122;18.972;2023-09-30T07:37:37;99091.97;;;14.10;56.53
41040;BME280;48586;50.122;18.972;2023-09-30T07:40:43;99106.94;;;14.04;56.82
41040;BME280;48586;50.122;18.972;2023-09-30T07:43:49;99101.16;;;13.99;57.71
41040;BME280;48586;50.122;18.972;2023-09-30T07:46:54;99102.94;;;13.90;58.92
41040;BME280;48586;50.122;18.972;2023-09-30T07:50:00;99102.25;;;13.88;59.46
41040;BME280;48586;50.122;18.972;2023-09-30T07:53:13;99105.34;;;13.75;59.79
41040;BME280;48586;50.122;18.972;2023-09-30T07:56:20;99107.63;;;13.70;60.30
41040;BME280;48586;50.122;18.972;2023-09-30T07:59:25;99114.88;;;13.70;60.11
41040;BME280;48586;50.122;18.972;2023-09-30T08:02:33;99112.66;;;13.65;60.39
41040;BME280;48586;50.122;18.972;2023-09-30T08:05:39;99112.09;;;13.62;60.71
41040;BME280;48586;50.122;18.972;2023-09-30T08:08:48;99124.72;;;13.61;61.21
41040;BME280;48586;50.122;18.972;2023-09-30T08:11:54;99120.00;;;13.63;61.23
41040;BME280;48586;50.122;18.972;2023-09-30T08:15:01;99128.63;;;13.67;61.87
41040;BME280;48586;50.122;18.972;2023-09-30T08:18:07;99128.47;;;13.68;62.13
41040;BME280;48586;50.122;18.972;2023-09-30T08:21:13;99124.25;;;13.66;62.25
41040;BME280;48586;50.122;18.972;2023-09-30T08:24:21;99129.81;;;13.64;62.73
41040;BME280;48586;50.122;18.972;2023-09-30T08:27:27;99126.00;;;13.57;63.14
41040;BME280;48586;50.122;18.972;2023-09-30T08:30:34;99133.97;;;13.49;65.48
41040;BME280;48586;50.122;18.972;2023-09-30T08:33:40;99130.50;;;13.39;65.66
41040;BME280;48586;50.122;18.972;2023-09-30T08:36:49;99131.50;;;13.20;66.24
41040;BME280;48586;50.122;18.972;2023-09-30T08:39:58;99128.66;;;12.94;67.32
41040;BME280;48586;50.122;18.972;2023-09-30T08:43:11;99128.47;;;12.78;68.06
41040;BME280;48586;50.122;18.972;2023-09-30T08:46:19;99131.56;;;12.73;68.60
41040;BME280;48586;50.122;18.972;2023-09-30T08:49:26;99130.59;;;12.64;68.54
41040;BME280;48586;50.122;18.972;2023-09-30T08:52:34;99134.13;;;12.65;68.80
41040;BME280;48586;50.122;18.972;2023-09-30T08:55:46;99129.91;;;12.62;68.85
41040;BME280;48586;50.122;18.972;2023-09-30T08:58:57;99123.28;;;12.57;68.86
41040;BME280;48586;50.122;18.972;2023-09-30T09:02:08;99123.44;;;12.55;69.29
41040;BME280;48586;50.122;18.972;2023-09-30T09:05:17;99127.91;;;12.64;69.18
41040;BME280;48586;50.122;18.972;2023-09-30T09:08:24;99131.03;;;12.70;69.76
41040;BME280;48586;50.122;18.972;2023-09-30T09:11:39;99134.97;;;12.75;69.46
41040;BME280;48586;50.122;18.972;2023-09-30T09:14:45;99140.06;;;12.78;69.59
41040;BME280;48586;50.122;18.972;2023-09-30T09:17:52;99128.00;;;12.82;69.47
41040;BME280;48586;50.122;18.972;2023-09-30T09:21:08;99130.38;;;12.85;69.81
41040;BME280;48586;50.122;18.972;2023-09-30T09:24:26;99137.72;;;12.93;70.06
41040;BME280;48586;50.122;18.972;2023-09-30T09:27:37;99135.44;;;12.98;70.19
41040;BME280;48586;50.122;18.972;2023-09-30T09:30:44;99148.41;;;13.03;70.11
41040;BME280;48586;50.122;18.972;2023-09-30T09:33:50;99149.69;;;13.08;69.88
41040;BME280;48586;50.122;18.972;2023-09-30T09:36:57;99148.53;;;13.11;70.37
41040;BME280;48586;50.122;18.972;2023-09-30T09:40:04;99152.91;;;13.12;70.34
41040;BME280;48586;50.122;18.972;2023-09-30T09:43:15;99150.22;;;13.12;70.52
41040;BME280;48586;50.122;18.972;2023-09-30T09:46:21;99161.66;;;13.14;70.72
41040;BME280;48586;50.122;18.972;2023-09-30T09:49:29;99160.22;;;13.19;70.82
41040;BME280;48586;50.122;18.972;2023-09-30T09:52:39;99151.84;;;13.23;70.84
41040;BME280;48586;50.122;18.972;2023-09-30T09:55:50;99148.97;;;13.34;70.63
41040;BME280;48586;50.122;18.972;2023-09-30T09:59:02;99153.97;;;13.46;71.18
41040;BME280;48586;50.122;18.972;2023-09-30T10:02:12;99160.53;;;13.62;71.13
41040;BME280;48586;50.122;18.972;2023-09-30T10:05:21;99154.47;;;13.77;70.60
41040;BME280;48586;50.122;18.972;2023-09-30T10:08:33;99154.56;;;13.86;70.03
41040;BME280;48586;50.122;18.972;2023-09-30T10:11:45;99153.63;;;13.95;70.33
41040;BME280;48586;50.122;18.972;2023-09-30T10:14:54;99158.78;;;14.06;70.23
41040;BME280;48586;50.122;18.972;2023-09-30T10:18:01;99156.44;;;14.11;69.99
41040;BME280;48586;50.122;18.972;2023-09-30T10:21:09;99162.59;;;14.21;69.78
41040;BME280;48586;50.122;18.972;2023-09-30T10:24:29;99155.19;;;14.23;68.98
41040;BME280;48586;50.122;18.972;2023-09-30T10:27:36;99159.56;;;14.24;69.39
41040;BME280;48586;50.122;18.972;2023-09-30T10:31:15;99155.34;;;14.22;69.59
41040;BME280;48586;50.122;18.972;2023-09-30T10:34:24;99165.66;;;14.26;69.66
41040;BME280;48586;50.122;18.972;2023-09-30T10:37:30;99171.41;;;14.31;69.20
41040;BME280;48586;50.122;18.972;2023-09-30T10:40:36;99171.09;;;14.34;69.26
41040;BME280;48586;50.122;18.972;2023-09-30T10:43:43;99175.03;;;14.40;69.75
41040;BME280;48586;50.122;18.972;2023-09-30T10:46:52;99170.16;;;14.44;68.96
41040;BME280;48586;50.122;18.972;2023-09-30T10:49:59;99177.94;;;14.47;69.16
41040;BME280;48586;50.122;18.972;2023-09-30T10:53:07;99170.84;;;14.46;68.86
41040;BME280;48586;50.122;18.972;2023-09-30T10:56:14;99170.84;;;14.46;69.02
41040;BME280;48586;50.122;18.972;2023-09-30T10:59:23;99160.44;;;14.51;68.79
41040;BME280;48586;50.122;18.972;2023-09-30T11:02:35;99166.50;;;14.53;68.92
41040;BME280;48586;50.122;18.972;2023-09-30T11:05:47;99169.41;;;14.33;68.66
41040;BME280;48586;50.122;18.972;2023-09-30T11:08:56;99175.22;;;14.21;69.29
41040;BME280;48586;50.122;18.972;2023-09-30T11:12:13;99179.16;;;14.08;69.46
41040;BME280;48586;50.122;18.972;2023-09-30T11:15:20;99178.91;;;14.02;69.17
41040;BME280;48586;50.122;18.972;2023-09-30T11:18:30;99181.84;;;13.91;69.48
41040;BME280;48586;50.122;18.972;2023-09-30T11:21:37;99187.53;;;13.88;69.21
41040;BME280;48586;50.122;18.972;2023-09-30T11:24:43;99186.69;;;13.87;68.85
41040;BME280;48586;50.122;18.972;2023-09-30T11:27:51;99196.78;;;13.85;68.50
41040;BME280;48586;50.122;18.972;2023-09-30T11:30:59;99196.44;;;13.70;68.92
41040;BME280;48586;50.122;18.972;2023-09-30T11:34:11;99196.06;;;13.65;68.50
41040;BME280;48586;50.122;18.972;2023-09-30T11:37:17;99209.72;;;13.54;68.75
41040;BME280;48586;50.122;18.972;2023-09-30T11:40:24;99207.75;;;13.46;68.36
41040;BME280;48586;50.122;18.972;2023-09-30T11:43:30;99207.66;;;13.38;68.47
41040;BME280;48586;50.122;18.972;2023-09-30T11:46:50;99210.78;;;13.43;67.28
41040;BME280;48586;50.122;18.972;2023-09-30T11:50:01;99208.22;;;13.42;67.31
41040;BME280;48586;50.122;18.972;2023-09-30T11:53:15;99205.91;;;13.47;68.21
41040;BME280;48586;50.122;18.972;2023-09-30T11:56:23;99200.53;;;13.47;67.10
41040;BME280;48586;50.122;18.972;2023-09-30T11:59:32;99212.00;;;13.49;67.20
41040;BME280;48586;50.122;18.972;2023-09-30T12:02:38;99212.72;;;13.51;66.30
41040;BME280;48586;50.122;18.972;2023-09-30T12:05:46;99212.72;;;13.51;66.42
41040;BME280;48586;50.122;18.972;2023-09-30T12:08:54;99208.19;;;13.52;66.05
41040;BME280;48586;50.122;18.972;2023-09-30T12:11:59;99210.41;;;13.56;65.84
41040;BME280;48586;50.122;18.972;2023-09-30T12:15:08;99213.63;;;13.60;65.87
41040;BME280;48586;50.122;18.972;2023-09-30T12:18:15;99211.00;;;13.50;65.49
41040;BME280;48586;50.122;18.972;2023-09-30T12:21:28;99208.47;;;13.48;66.65
41040;BME280;48586;50.122;18.972;2023-09-30T12:24:34;99205.72;;;13.58;66.24
41040;BME280;48586;50.122;18.972;2023-09-30T12:27:40;99209.53;;;13.65;66.24
41040;BME280;48586;50.122;18.972;2023-09-30T12:30:49;99211.56;;;13.54;66.20
41040;BME280;48586;50.122;18.972;2023-09-30T12:33:57;99218.31;;;13.58;65.26
41040;BME280;48586;50.122;18.972;2023-09-30T12:37:05;99221.75;;;13.50;65.66
41040;BME280;48586;50.122;18.972;2023-09-30T12:40:12;99224.59;;;13.48;65.48
41040;BME280;48586;50.122;18.972;2023-09-30T12:43:19;99225.31;;;13.50;66.26
41040;BME280;48586;50.122;18.972;2023-09-30T12:46:26;99233.66;;;13.47;65.49
41040;BME280;48586;50.122;18.972;2023-09-30T12:49:33;99228.84;;;13.51;65.22
41040;BME280;48586;50.122;18.972;2023-09-30T12:52:42;99236.31;;;13.57;64.76
41040;BME280;48586;50.122;18.972;2023-09-30T12:55:48;99237.31;;;13.56;65.35
41040;BME280;48586;50.122;18.972;2023-09-30T12:58:54;99250.44;;;13.59;65.45
41040;BME280;48586;50.122;18.972;2023-09-30T13:01:59;99241.94;;;13.64;64.74
41040;BME280;48586;50.122;18.972;2023-09-30T13:05:06;99248.03;;;13.66;65.25
41040;BME280;48586;50.122;18.972;2023-09-30T13:08:14;99246.59;;;13.71;64.14
41040;BME280;48586;50.122;18.972;2023-09-30T13:11:20;99246.06;;;13.58;64.18
41040;BME280;48586;50.122;18.972;2023-09-30T13:14:26;99255.44;;;13.54;64.13
41040;BME280;48586;50.122;18.972;2023-09-30T13:17:33;99249.53;;;13.50;64.50
41040;BME280;48586;50.122;18.972;2023-09-30T13:20:40;99243.00;;;13.53;63.73
41040;BME280;48586;50.122;18.972;2023-09-30T13:23:48;99257.44;;;13.52;63.39
41040;BME280;48586;50.122;18.972;2023-09-30T13:26:54;99256.03;;;13.48;63.49
41040;BME280;48586;50.122;18.972;2023-09-30T13:29:59;99260.28;;;13.50;63.28
41040;BME280;48586;50.122;18.972;2023-09-30T13:33:05;99252.50;;;13.47;63.56
41040;BME280;48586;50.122;18.972;2023-09-30T13:36:12;99260.84;;;13.54;63.09
41040;BME280;48586;50.122;18.972;2023-09-30T13:39:19;99255.44;;;13.54;63.49
41040;BME280;48586;50.122;18.972;2023-09-30T13:42:28;99254.13;;;13.58;63.28
41040;BME280;48586;50.122;18.972;2023-09-30T13:45:33;99258.50;;;13.69;63.08
41040;BME280;48586;50.122;18.972;2023-09-30T13:48:40;99251.22;;;13.79;63.20
41040;BME280;48586;50.122;18.972;2023-09-30T13:51:46;99253.47;;;14.01;62.81
41040;BME280;48586;50.122;18.972;2023-09-30T13:54:55;99260.56;;;14.20;61.21
41040;BME280;48586;50.122;18.972;2023-09-30T13:58:01;99252.16;;;14.41;61.34
41040;BME280;48586;50.122;18.972;2023-09-30T14:01:07;99265.16;;;14.63;60.36
41040;BME280;48586;50.122;18.972;2023-09-30T14:04:12;99247.53;;;14.69;59.87
41040;BME280;48586;50.122;18.972;2023-09-30T14:07:19;99251.31;;;14.84;60.17
41040;BME280;48586;50.122;18.972;2023-09-30T14:10:27;99248.97;;;15.15;58.22
41040;BME280;48586;50.122;18.972;2023-09-30T14:13:33;99247.91;;;15.34;57.28
41040;BME280;48586;50.122;18.972;2023-09-30T14:16:38;99240.56;;;15.44;56.94
41040;BME280;48586;50.122;18.972;2023-09-30T14:19:44;99243.25;;;15.44;57.01
41040;BME280;48586;50.122;18.972;2023-09-30T14:22:49;99244.28;;;15.51;55.98
41040;BME280;48586;50.122;18.972;2023-09-30T14:26:00;99247.97;;;15.50;57.03
41040;BME280;48586;50.122;18.972;2023-09-30T14:29:13;99245.72;;;15.38;56.87
41040;BME280;48586;50.122;18.972;2023-09-30T14:32:19;99247.00;;;15.26;57.74
41040;BME280;48586;50.122;18.972;2023-09-30T14:35:25;99251.50;;;15.17;57.85
41040;BME280;48586;50.122;18.972;2023-09-30T14:38:30;99250.66;;;15.16;57.98
41040;BME280;48586;50.122;18.972;2023-09-30T14:41:38;99244.81;;;15.21;57.88
41040;BME280;48586;50.122;18.972;2023-09-30T14:44:44;99249.22;;;15.64;57.97
41040;BME280;48586;50.122;18.972;2023-09-30T14:47:50;99243.75;;;16.15;55.56
41040;BME280;48586;50.122;18.972;2023-09-30T14:50:55;99236.03;;;16.44;53.09
41040;BME280;48586;50.122;18.972;2023-09-30T14:54:00;99237.03;;;16.67;52.86
41040;BME280;48586;50.122;18.972;2023-09-30T14:57:10;99241.94;;;16.72;49.00
41040;BME280;48586;50.122;18.972;2023-09-30T15:00:17;99246.47;;;16.80;48.48
41040;BME280;48586;50.122;18.972;2023-09-30T15:03:24;99245.13;;;16.92;46.71
41040;BME280;48586;50.122;18.972;2023-09-30T15:06:30;99252.41;;;16.83;45.15
41040;BME280;48586;50.122;18.972;2023-09-30T15:09:36;99252.22;;;16.77;46.35
41040;BME280;48586;50.122;18.972;2023-09-30T15:12:43;99252.91;;;16.79;45.67
41040;BME280;48586;50.122;18.972;2023-09-30T15:15:49;99266.28;;;16.64;45.21
41040;BME280;48586;50.122;18.972;2023-09-30T15:18:54;99271.00;;;16.46;46.14
41040;BME280;48586;50.122;18.972;2023-09-30T15:21:59;99266.78;;;16.27;47.17
41040;BME280;48586;50.122;18.972;2023-09-30T15:25:05;99271.78;;;16.14;47.51
41040;BME280;48586;50.122;18.972;2023-09-30T15:28:16;99270.06;;;16.04;47.06
41040;BME280;48586;50.122;18.972;2023-09-30T15:31:20;99269.72;;;15.91;46.59
41040;BME280;48586;50.122;18.972;2023-09-30T15:34:31;99276.44;;;15.79;47.23
41040;BME280;48586;50.122;18.972;2023-09-30T15:37:36;99289.34;;;15.59;47.80
41040;BME280;48586;50.122;18.972;2023-09-30T15:40:51;99291.91;;;15.35;48.21
41040;BME280;48586;50.122;18.972;2023-09-30T15:44:02;99291.81;;;15.18;49.03
41040;BME280;48586;50.122;18.972;2023-09-30T15:47:09;99294.09;;;15.05;49.48
41040;BME280;48586;50.122;18.972;2023-09-30T15:50:16;99290.59;;;14.87;49.96
41040;BME280;48586;50.122;18.972;2023-09-30T15:53:23;99294.56;;;14.75;50.21
41040;BME280;48586;50.122;18.972;2023-09-30T15:56:30;99293.44;;;14.59;50.91
41040;BME280;48586;50.122;18.972;2023-09-30T15:59:39;99298.34;;;14.46;51.54
41040;BME280;48586;50.122;18.972;2023-09-30T16:02:44;99301.97;;;14.37;51.57
41040;BME280;48586;50.122;18.972;2023-09-30T16:05:51;99296.09;;;14.24;51.69
41040;BME280;48586;50.122;18.972;2023-09-30T16:08:57;99303.97;;;14.17;51.70
41040;BME280;48586;50.122;18.972;2023-09-30T16:12:03;99307.16;;;14.03;52.37
41040;BME280;48586;50.122;18.972;2023-09-30T16:15:12;99316.38;;;13.83;53.00
41040;BME280;48586;50.122;18.972;2023-09-30T16:18:18;99319.28;;;13.62;53.50
41040;BME280;48586;50.122;18.972;2023-09-30T16:21:23;99323.75;;;13.43;54.09